sensor_id;sensor_type;location;lat;lon;timestamp;temperature;humidity
10911;DHT22;5508;49.150;11.030;2023-01-06T00:02:52;6.30;99.90
10911;DHT22;5508;49.150;11.030;2023-01-06T00:06:02;6.30;99.90
10911;DHT22;5508;49.150;11.030;2023-01-06T00:09:04;6.40;99.90
10911;DHT22;5508;49.150;11.030;2023-01-06T00:12:06;6.40;99.90
10911;DHT22;5508;49.150;11.030;2023-01-06T00:15:07;6.40;99.90
10911;DHT22;5508;49.150;11.030;2023-01-06T00:18:08;6.50;99.90
10911;DHT22;5508;49.150;11.030;2023-01-06T00:21:10;6.50;99.90
10911;DHT22;5508;49.150;11.030;2023-01-06T00:24:11;6.60;99.90
10911;DHT22;5508;49.150;11.030;2023-01-06T00:27:11;6.50;99.90
10911;DHT22;5508;49.150;11.030;2023-01-06T00:30:12;6.50;99.90
10911;DHT22;5508;49.150;11.030;2023-01-06T00:33:12;6.50;99.90
10911;DHT22;5508;49.150;11.030;2023-01-06T00:36:13;6.60;99.90
10911;DHT22;5508;49.150;11.030;2023-01-06T00:39:14;6.50;99.90
10911;DHT22;5508;49.150;11.030;2023-01-06T00:42:15;6.60;99.90
10911;DHT22;5508;49.150;11.030;2023-01-06T00:45:15;6.60;99.90
10911;DHT22;5508;49.150;11.030;2023-01-06T00:48:16;6.70;99.90
10911;DHT22;5508;49.150;11.030;2023-01-06T00:51:17;6.70;99.90
10911;DHT22;5508;49.150;11.030;2023-01-06T00:54:17;6.70;99.90
10911;DHT22;5508;49.150;11.030;2023-01-06T00:57:18;6.80;99.90
10911;DHT22;5508;49.150;11.030;2023-01-06T01:00:19;6.80;99.90
10911;DHT22;5508;49.150;11.030;2023-01-06T01:03:20;6.70;99.90
10911;DHT22;5508;49.150;11.030;2023-01-06T01:06:21;6.60;99.90
10911;DHT22;5508;49.150;11.030;2023-01-06T01:09:24;6.50;99.90
10911;DHT22;5508;49.150;11.030;2023-01-06T01:12:26;6.40;99.90
10911;DHT22;5508;49.150;11.030;2023-01-06T01:15:26;6.40;99.90
10911;DHT22;5508;49.150;11.030;2023-01-06T01:18:27;6.50;99.90
10911;DHT22;5508;49.150;11.030;2023-01-06T01:21:27;6.70;99.90
10911;DHT22;5508;49.150;11.030;2023-01-06T01:24:28;6.70;99.90
10911;DHT22;5508;49.150;11.030;2023-01-06T01:27:29;6.60;99.90
10911;DHT22;5508;49.150;11.030;2023-01-06T01:30:29;6.60;99.90
10911;DHT22;5508;49.150;11.030;2023-01-06T01:33:31;6.80;99.90
10911;DHT22;5508;49.150;11.030;2023-01-06T01:36:31;6.80;99.90
10911;DHT22;5508;49.150;11.030;2023-01-06T01:39:32;6.80;99.90
10911;DHT22;5508;49.150;11.030;2023-01-06T01:42:32;6.80;99.90
10911;DHT22;5508;49.150;11.030;2023-01-06T01:45:33;6.80;99.90
10911;DHT22;5508;49.150;11.030;2023-01-06T01:48:34;6.80;99.90
10911;DHT22;5508;49.150;11.030;2023-01-06T01:51:40;6.80;99.90
10911;DHT22;5508;49.150;11.030;2023-01-06T01:54:41;6.90;99.90
10911;DHT22;5508;49.150;11.030;2023-01-06T01:57:51;7.00;99.90
10911;DHT22;5508;49.150;11.030;2023-01-06T02:00:52;7.00;99.90
10911;DHT22;5508;49.150;11.030;2023-01-06T02:03:53;7.00;99.90
10911;DHT22;5508;49.150;11.030;2023-01-06T02:06:54;7.00;99.90
10911;DHT22;5508;49.150;11.030;2023-01-06T02:10:11;6.90;99.90
10911;DHT22;5508;49.150;11.030;2023-01-06T02:13:12;6.90;99.90
10911;DHT22;5508;49.150;11.030;2023-01-06T02:16:30;6.80;99.90
10911;DHT22;5508;49.150;11.030;2023-01-06T02:30:04;6.70;99.90
10911;DHT22;5508;49.150;11.030;2023-01-06T02:39:46;6.70;99.90
10911;DHT22;5508;49.150;11.030;2023-01-06T02:46:25;6.80;99.90
10911;DHT22;5508;49.150;11.030;2023-01-06T02:49:40;6.80;99.90
10911;DHT22;5508;49.150;11.030;2023-01-06T02:55:47;7.00;99.90
10911;DHT22;5508;49.150;11.030;2023-01-06T02:59:06;7.00;99.90
10911;DHT22;5508;49.150;11.030;2023-01-06T03:02:10;6.90;99.90
10911;DHT22;5508;49.150;11.030;2023-01-06T03:05:14;6.80;99.90
10911;DHT22;5508;49.150;11.030;2023-01-06T03:08:19;6.80;99.90
10911;DHT22;5508;49.150;11.030;2023-01-06T03:11:23;6.80;99.90
10911;DHT22;5508;49.150;11.030;2023-01-06T03:14:37;6.80;99.90
10911;DHT22;5508;49.150;11.030;2023-01-06T03:17:39;7.00;99.90
10911;DHT22;5508;49.150;11.030;2023-01-06T03:20:39;6.90;99.90
10911;DHT22;5508;49.150;11.030;2023-01-06T03:23:41;6.80;99.90
10911;DHT22;5508;49.150;11.030;2023-01-06T03:26:44;6.80;99.90
10911;DHT22;5508;49.150;11.030;2023-01-06T03:29:45;6.70;99.90
10911;DHT22;5508;49.150;11.030;2023-01-06T03:33:05;6.80;99.90
10911;DHT22;5508;49.150;11.030;2023-01-06T03:39:27;6.70;99.90
10911;DHT22;5508;49.150;11.030;2023-01-06T03:42:45;6.70;99.90
10911;DHT22;5508;49.150;11.030;2023-01-06T03:46:16;6.60;99.90
10911;DHT22;5508;49.150;11.030;2023-01-06T03:50:03;6.60;99.90
10911;DHT22;5508;49.150;11.030;2023-01-06T03:53:24;6.60;99.90
10911;DHT22;5508;49.150;11.030;2023-01-06T03:56:38;6.50;99.90
10911;DHT22;5508;49.150;11.030;2023-01-06T03:59:45;6.50;99.90
10911;DHT22;5508;49.150;11.030;2023-01-06T04:02:47;6.50;99.90
10911;DHT22;5508;49.150;11.030;2023-01-06T04:05:48;6.40;99.90
10911;DHT22;5508;49.150;11.030;2023-01-06T04:08:49;6.30;99.90
10911;DHT22;5508;49.150;11.030;2023-01-06T04:11:50;6.40;99.90
10911;DHT22;5508;49.150;11.030;2023-01-06T04:15:20;6.40;99.90
10911;DHT22;5508;49.150;11.030;2023-01-06T04:18:21;6.50;99.90
10911;DHT22;5508;49.150;11.030;2023-01-06T04:21:22;6.60;99.90
10911;DHT22;5508;49.150;11.030;2023-01-06T04:24:22;6.60;99.90
10911;DHT22;5508;49.150;11.030;2023-01-06T04:27:23;6.60;99.90
10911;DHT22;5508;49.150;11.030;2023-01-06T04:30:24;6.50;99.90
10911;DHT22;5508;49.150;11.030;2023-01-06T04:33:24;6.50;99.90
10911;DHT22;5508;49.150;11.030;2023-01-06T04:36:25;6.30;99.90
10911;DHT22;5508;49.150;11.030;2023-01-06T04:39:25;6.10;99.90
10911;DHT22;5508;49.150;11.030;2023-01-06T04:42:26;6.10;99.90
10911;DHT22;5508;49.150;11.030;2023-01-06T04:45:27;6.30;99.90
10911;DHT22;5508;49.150;11.030;2023-01-06T04:48:27;6.40;99.90
10911;DHT22;5508;49.150;11.030;2023-01-06T04:51:28;6.40;99.90
10911;DHT22;5508;49.150;11.030;2023-01-06T04:54:29;6.40;99.90
10911;DHT22;5508;49.150;11.030;2023-01-06T04:57:29;6.50;99.90
10911;DHT22;5508;49.150;11.030;2023-01-06T05:00:30;6.40;99.90
10911;DHT22;5508;49.150;11.030;2023-01-06T05:03:30;6.50;99.90
10911;DHT22;5508;49.150;11.030;2023-01-06T05:06:31;6.60;99.90
10911;DHT22;5508;49.150;11.030;2023-01-06T05:09:32;6.50;99.90
10911;DHT22;5508;49.150;11.030;2023-01-06T05:12:33;6.50;99.90
10911;DHT22;5508;49.150;11.030;2023-01-06T05:15:34;6.50;99.90
10911;DHT22;5508;49.150;11.030;2023-01-06T05:18:35;6.50;99.90
10911;DHT22;5508;49.150;11.030;2023-01-06T05:21:36;6.60;99.90
10911;DHT22;5508;49.150;11.030;2023-01-06T05:24:36;6.40;99.90
10911;DHT22;5508;49.150;11.030;2023-01-06T05:27:37;6.40;99.90
10911;DHT22;5508;49.150;11.030;2023-01-06T05:30:37;6.20;99.90
10911;DHT22;5508;49.150;11.030;2023-01-06T05:33:38;6.10;99.90
10911;DHT22;5508;49.150;11.030;2023-01-06T05:36:39;6.20;99.90
10911;DHT22;5508;49.150;11.030;2023-01-06T05:39:39;6.00;99.90
10911;DHT22;5508;49.150;11.030;2023-01-06T05:42:40;6.10;99.90
10911;DHT22;5508;49.150;11.030;2023-01-06T05:45:40;6.10;99.90
10911;DHT22;5508;49.150;11.030;2023-01-06T05:48:41;6.00;99.90
10911;DHT22;5508;49.150;11.030;2023-01-06T05:51:41;6.10;99.90
10911;DHT22;5508;49.150;11.030;2023-01-06T05:54:42;6.00;99.90
10911;DHT22;5508;49.150;11.030;2023-01-06T05:57:42;5.90;99.90
10911;DHT22;5508;49.150;11.030;2023-01-06T06:00:43;5.80;99.90
10911;DHT22;5508;49.150;11.030;2023-01-06T06:03:44;5.70;99.90
10911;DHT22;5508;49.150;11.030;2023-01-06T06:06:45;5.70;99.90
10911;DHT22;5508;49.150;11.030;2023-01-06T06:09:45;5.60;99.90
10911;DHT22;5508;49.150;11.030;2023-01-06T06:12:46;5.70;99.90
10911;DHT22;5508;49.150;11.030;2023-01-06T06:15:46;5.60;99.90
10911;DHT22;5508;49.150;11.030;2023-01-06T06:18:49;5.60;99.90
10911;DHT22;5508;49.150;11.030;2023-01-06T06:21:51;5.60;99.90
10911;DHT22;5508;49.150;11.030;2023-01-06T06:24:52;5.60;99.90
10911;DHT22;5508;49.150;11.030;2023-01-06T06:27:56;5.60;99.90
10911;DHT22;5508;49.150;11.030;2023-01-06T06:31:15;5.60;99.90
10911;DHT22;5508;49.150;11.030;2023-01-06T06:34:17;5.80;99.90
10911;DHT22;5508;49.150;11.030;2023-01-06T06:37:17;5.80;99.90
10911;DHT22;5508;49.150;11.030;2023-01-06T06:40:18;6.00;99.90
10911;DHT22;5508;49.150;11.030;2023-01-06T06:43:18;5.90;99.90
10911;DHT22;5508;49.150;11.030;2023-01-06T06:46:19;6.10;99.90
10911;DHT22;5508;49.150;11.030;2023-01-06T06:49:20;6.10;99.90
10911;DHT22;5508;49.150;11.030;2023-01-06T06:52:21;6.20;99.90
10911;DHT22;5508;49.150;11.030;2023-01-06T06:55:21;6.40;99.90
10911;DHT22;5508;49.150;11.030;2023-01-06T06:58:22;6.40;99.90
10911;DHT22;5508;49.150;11.030;2023-01-06T07:01:23;6.50;99.90
10911;DHT22;5508;49.150;11.030;2023-01-06T07:04:23;6.50;99.90
10911;DHT22;5508;49.150;11.030;2023-01-06T07:07:24;6.60;99.90
10911;DHT22;5508;49.150;11.030;2023-01-06T07:10:25;6.60;99.90
10911;DHT22;5508;49.150;11.030;2023-01-06T07:13:25;6.70;99.90
10911;DHT22;5508;49.150;11.030;2023-01-06T07:16:26;6.70;99.90
10911;DHT22;5508;49.150;11.030;2023-01-06T07:19:27;6.70;99.90
10911;DHT22;5508;49.150;11.030;2023-01-06T07:22:28;6.70;99.90
10911;DHT22;5508;49.150;11.030;2023-01-06T07:25:29;6.80;99.90
10911;DHT22;5508;49.150;11.030;2023-01-06T07:28:30;6.70;99.90
10911;DHT22;5508;49.150;11.030;2023-01-06T07:31:31;6.70;99.90
10911;DHT22;5508;49.150;11.030;2023-01-06T07:34:32;6.80;99.90
10911;DHT22;5508;49.150;11.030;2023-01-06T07:37:32;6.80;99.90
10911;DHT22;5508;49.150;11.030;2023-01-06T07:40:34;6.90;99.90
10911;DHT22;5508;49.150;11.030;2023-01-06T07:43:34;6.90;99.90
10911;DHT22;5508;49.150;11.030;2023-01-06T07:46:35;6.90;99.90
10911;DHT22;5508;49.150;11.030;2023-01-06T07:49:36;7.00;99.90
10911;DHT22;5508;49.150;11.030;2023-01-06T07:52:36;7.00;99.90
10911;DHT22;5508;49.150;11.030;2023-01-06T07:55:37;7.10;99.90
10911;DHT22;5508;49.150;11.030;2023-01-06T07:58:37;7.10;99.90
10911;DHT22;5508;49.150;11.030;2023-01-06T08:01:38;7.10;99.90
10911;DHT22;5508;49.150;11.030;2023-01-06T08:04:38;7.10;99.90
10911;DHT22;5508;49.150;11.030;2023-01-06T08:07:39;6.90;99.90
10911;DHT22;5508;49.150;11.030;2023-01-06T08:10:40;6.80;99.90
10911;DHT22;5508;49.150;11.030;2023-01-06T08:13:41;6.70;99.90
10911;DHT22;5508;49.150;11.030;2023-01-06T08:16:42;6.60;99.90
10911;DHT22;5508;49.150;11.030;2023-01-06T08:19:42;6.50;99.90
10911;DHT22;5508;49.150;11.030;2023-01-06T08:22:43;6.60;99.90
10911;DHT22;5508;49.150;11.030;2023-01-06T08:25:43;6.60;99.90
10911;DHT22;5508;49.150;11.030;2023-01-06T08:28:45;6.90;99.90
10911;DHT22;5508;49.150;11.030;2023-01-06T08:31:45;7.20;99.90
10911;DHT22;5508;49.150;11.030;2023-01-06T08:34:46;7.30;99.90
10911;DHT22;5508;49.150;11.030;2023-01-06T08:37:48;7.30;99.90
10911;DHT22;5508;49.150;11.030;2023-01-06T08:40:51;7.30;99.90
10911;DHT22;5508;49.150;11.030;2023-01-06T08:43:51;7.30;99.90
10911;DHT22;5508;49.150;11.030;2023-01-06T08:46:52;7.30;99.90
10911;DHT22;5508;49.150;11.030;2023-01-06T08:49:52;7.30;99.90
10911;DHT22;5508;49.150;11.030;2023-01-06T08:52:53;7.30;99.90
10911;DHT22;5508;49.150;11.030;2023-01-06T08:55:53;7.30;99.90
10911;DHT22;5508;49.150;11.030;2023-01-06T08:58:57;7.30;99.90
10911;DHT22;5508;49.150;11.030;2023-01-06T09:01:58;7.40;99.90
10911;DHT22;5508;49.150;11.030;2023-01-06T09:04:59;7.50;99.90
10911;DHT22;5508;49.150;11.030;2023-01-06T09:07:59;7.60;99.90
10911;DHT22;5508;49.150;11.030;2023-01-06T09:11:08;7.60;99.90
10911;DHT22;5508;49.150;11.030;2023-01-06T09:14:10;7.90;99.90
10911;DHT22;5508;49.150;11.030;2023-01-06T09:17:13;7.90;99.90
10911;DHT22;5508;49.150;11.030;2023-01-06T09:20:13;7.90;99.90
10911;DHT22;5508;49.150;11.030;2023-01-06T09:23:14;7.90;99.90
10911;DHT22;5508;49.150;11.030;2023-01-06T09:26:16;7.90;99.90
10911;DHT22;5508;49.150;11.030;2023-01-06T09:29:17;8.00;99.90
10911;DHT22;5508;49.150;11.030;2023-01-06T09:32:17;8.10;99.90
10911;DHT22;5508;49.150;11.030;2023-01-06T09:35:18;8.00;99.90
10911;DHT22;5508;49.150;11.030;2023-01-06T09:38:18;8.10;99.90
10911;DHT22;5508;49.150;11.030;2023-01-06T09:44:59;8.40;99.90
10911;DHT22;5508;49.150;11.030;2023-01-06T09:48:01;8.70;99.90
10911;DHT22;5508;49.150;11.030;2023-01-06T09:51:04;8.90;99.90
10911;DHT22;5508;49.150;11.030;2023-01-06T09:57:17;9.20;99.90
10911;DHT22;5508;49.150;11.030;2023-01-06T10:03:27;9.10;99.90
10911;DHT22;5508;49.150;11.030;2023-01-06T10:20:38;8.30;99.90
10911;DHT22;5508;49.150;11.030;2023-01-06T10:26:56;8.20;99.90
10911;DHT22;5508;49.150;11.030;2023-01-06T10:29:59;8.40;99.90
10911;DHT22;5508;49.150;11.030;2023-01-06T10:33:01;8.40;99.90
10911;DHT22;5508;49.150;11.030;2023-01-06T10:36:08;8.30;99.90
10911;DHT22;5508;49.150;11.030;2023-01-06T10:39:17;8.20;99.90
10911;DHT22;5508;49.150;11.030;2023-01-06T10:46:03;8.10;99.90
10911;DHT22;5508;49.150;11.030;2023-01-06T10:49:07;7.90;99.90
10911;DHT22;5508;49.150;11.030;2023-01-06T10:52:13;7.90;99.90
10911;DHT22;5508;49.150;11.030;2023-01-06T10:55:33;7.80;99.90
10911;DHT22;5508;49.150;11.030;2023-01-06T10:58:57;7.90;99.90
10911;DHT22;5508;49.150;11.030;2023-01-06T11:01:58;8.00;99.90
10911;DHT22;5508;49.150;11.030;2023-01-06T11:05:02;8.20;99.90
10911;DHT22;5508;49.150;11.030;2023-01-06T11:08:06;8.30;99.90
10911;DHT22;5508;49.150;11.030;2023-01-06T11:11:15;8.50;99.90
10911;DHT22;5508;49.150;11.030;2023-01-06T11:14:18;8.80;99.90
10911;DHT22;5508;49.150;11.030;2023-01-06T11:17:21;8.80;99.90
10911;DHT22;5508;49.150;11.030;2023-01-06T11:23:22;8.70;99.90
10911;DHT22;5508;49.150;11.030;2023-01-06T11:26:23;8.60;99.90
10911;DHT22;5508;49.150;11.030;2023-01-06T11:32:29;8.80;99.90
10911;DHT22;5508;49.150;11.030;2023-01-06T11:35:31;8.90;99.90
10911;DHT22;5508;49.150;11.030;2023-01-06T11:38:58;9.00;99.90
10911;DHT22;5508;49.150;11.030;2023-01-06T11:42:09;9.20;99.90
10911;DHT22;5508;49.150;11.030;2023-01-06T11:52:08;9.30;99.90
10911;DHT22;5508;49.150;11.030;2023-01-06T11:55:20;9.30;99.90
10911;DHT22;5508;49.150;11.030;2023-01-06T11:58:28;9.40;98.20
10911;DHT22;5508;49.150;11.030;2023-01-06T12:04:43;9.50;97.60
10911;DHT22;5508;49.150;11.030;2023-01-06T12:07:51;9.50;96.20
10911;DHT22;5508;49.150;11.030;2023-01-06T12:14:43;9.40;95.30
10911;DHT22;5508;49.150;11.030;2023-01-06T12:18:09;9.40;94.90
10911;DHT22;5508;49.150;11.030;2023-01-06T12:21:18;9.30;95.80
10911;DHT22;5508;49.150;11.030;2023-01-06T12:24:23;9.20;95.30
10911;DHT22;5508;49.150;11.030;2023-01-06T12:27:42;9.10;95.30
10911;DHT22;5508;49.150;11.030;2023-01-06T12:30:54;9.10;95.70
10911;DHT22;5508;49.150;11.030;2023-01-06T12:37:38;9.00;97.30
10911;DHT22;5508;49.150;11.030;2023-01-06T12:40:46;9.00;96.70
10911;DHT22;5508;49.150;11.030;2023-01-06T12:43:54;9.00;96.70
10911;DHT22;5508;49.150;11.030;2023-01-06T12:47:13;9.00;97.50
10911;DHT22;5508;49.150;11.030;2023-01-06T12:53:31;8.90;95.80
10911;DHT22;5508;49.150;11.030;2023-01-06T13:00:42;9.00;96.00
10911;DHT22;5508;49.150;11.030;2023-01-06T13:07:24;8.90;95.90
10911;DHT22;5508;49.150;11.030;2023-01-06T13:10:35;8.90;96.40
10911;DHT22;5508;49.150;11.030;2023-01-06T13:14:10;8.90;96.30
10911;DHT22;5508;49.150;11.030;2023-01-06T13:20:39;8.90;96.10
10911;DHT22;5508;49.150;11.030;2023-01-06T13:27:07;8.80;94.60
10911;DHT22;5508;49.150;11.030;2023-01-06T13:40:16;8.70;94.30
10911;DHT22;5508;49.150;11.030;2023-01-06T13:43:24;8.70;94.60
10911;DHT22;5508;49.150;11.030;2023-01-06T13:46:27;8.70;94.90
10911;DHT22;5508;49.150;11.030;2023-01-06T13:49:28;8.60;94.70
10911;DHT22;5508;49.150;11.030;2023-01-06T13:52:30;8.70;96.20
10911;DHT22;5508;49.150;11.030;2023-01-06T13:55:34;8.60;92.00
10911;DHT22;5508;49.150;11.030;2023-01-06T13:58:42;8.60;92.60
10911;DHT22;5508;49.150;11.030;2023-01-06T14:01:43;8.60;91.70
10911;DHT22;5508;49.150;11.030;2023-01-06T14:04:45;8.60;91.50
10911;DHT22;5508;49.150;11.030;2023-01-06T14:07:54;8.70;91.60
10911;DHT22;5508;49.150;11.030;2023-01-06T14:14:22;8.70;92.30
10911;DHT22;5508;49.150;11.030;2023-01-06T14:17:41;8.70;88.70
10911;DHT22;5508;49.150;11.030;2023-01-06T14:20:42;8.70;89.90
10911;DHT22;5508;49.150;11.030;2023-01-06T14:24:07;8.70;90.70
10911;DHT22;5508;49.150;11.030;2023-01-06T14:30:48;8.60;89.30
10911;DHT22;5508;49.150;11.030;2023-01-06T14:33:54;8.60;89.20
10911;DHT22;5508;49.150;11.030;2023-01-06T14:36:57;8.60;89.00
10911;DHT22;5508;49.150;11.030;2023-01-06T14:39:59;8.60;90.00
10911;DHT22;5508;49.150;11.030;2023-01-06T14:43:06;8.60;89.40
10911;DHT22;5508;49.150;11.030;2023-01-06T14:46:30;8.50;90.80
10911;DHT22;5508;49.150;11.030;2023-01-06T14:50:02;8.50;90.20
10911;DHT22;5508;49.150;11.030;2023-01-06T14:53:36;8.50;90.40
10911;DHT22;5508;49.150;11.030;2023-01-06T14:56:51;8.60;89.00
10911;DHT22;5508;49.150;11.030;2023-01-06T15:03:35;8.50;90.00
10911;DHT22;5508;49.150;11.030;2023-01-06T15:06:36;8.40;91.00
10911;DHT22;5508;49.150;11.030;2023-01-06T15:09:36;8.40;91.00
10911;DHT22;5508;49.150;11.030;2023-01-06T15:12:37;8.30;90.90
10911;DHT22;5508;49.150;11.030;2023-01-06T15:15:37;8.30;92.30
10911;DHT22;5508;49.150;11.030;2023-01-06T15:18:42;8.30;92.60
10911;DHT22;5508;49.150;11.030;2023-01-06T15:21:45;8.30;92.60
10911;DHT22;5508;49.150;11.030;2023-01-06T15:24:47;8.20;92.90
10911;DHT22;5508;49.150;11.030;2023-01-06T15:27:48;8.20;93.20
10911;DHT22;5508;49.150;11.030;2023-01-06T15:30:49;8.20;93.30
10911;DHT22;5508;49.150;11.030;2023-01-06T15:33:50;8.10;93.40
10911;DHT22;5508;49.150;11.030;2023-01-06T15:36:53;8.10;94.30
10911;DHT22;5508;49.150;11.030;2023-01-06T15:39:55;8.00;94.80
10911;DHT22;5508;49.150;11.030;2023-01-06T15:42:56;8.00;95.20
10911;DHT22;5508;49.150;11.030;2023-01-06T15:46:09;8.00;95.40
10911;DHT22;5508;49.150;11.030;2023-01-06T15:55:38;8.00;95.50
10911;DHT22;5508;49.150;11.030;2023-01-06T15:58:43;7.90;96.30
10911;DHT22;5508;49.150;11.030;2023-01-06T16:01:50;7.90;97.20
10911;DHT22;5508;49.150;11.030;2023-01-06T16:04:51;7.90;97.30
10911;DHT22;5508;49.150;11.030;2023-01-06T16:08:04;7.80;98.20
10911;DHT22;5508;49.150;11.030;2023-01-06T16:14:32;7.90;96.40
10911;DHT22;5508;49.150;11.030;2023-01-06T16:17:44;7.90;95.60
10911;DHT22;5508;49.150;11.030;2023-01-06T16:20:45;8.00;96.20
10911;DHT22;5508;49.150;11.030;2023-01-06T16:23:51;7.90;95.80
10911;DHT22;5508;49.150;11.030;2023-01-06T16:26:56;7.90;96.40
10911;DHT22;5508;49.150;11.030;2023-01-06T16:33:38;8.00;96.10
10911;DHT22;5508;49.150;11.030;2023-01-06T16:36:39;8.00;95.80
10911;DHT22;5508;49.150;11.030;2023-01-06T16:39:40;8.00;95.40
10911;DHT22;5508;49.150;11.030;2023-01-06T16:42:41;8.00;96.20
10911;DHT22;5508;49.150;11.030;2023-01-06T16:45:43;8.00;96.80
10911;DHT22;5508;49.150;11.030;2023-01-06T16:48:49;8.00;95.80
10911;DHT22;5508;49.150;11.030;2023-01-06T16:51:50;8.00;97.30
10911;DHT22;5508;49.150;11.030;2023-01-06T16:54:54;7.90;97.70
10911;DHT22;5508;49.150;11.030;2023-01-06T16:57:57;7.90;97.50
10911;DHT22;5508;49.150;11.030;2023-01-06T17:01:07;7.90;99.50
10911;DHT22;5508;49.150;11.030;2023-01-06T17:04:09;7.80;99.60
10911;DHT22;5508;49.150;11.030;2023-01-06T17:07:13;7.80;99.00
10911;DHT22;5508;49.150;11.030;2023-01-06T17:10:24;7.90;99.10
10911;DHT22;5508;49.150;11.030;2023-01-06T17:13:26;7.90;99.40
10911;DHT22;5508;49.150;11.030;2023-01-06T17:16:38;7.90;99.80
10911;DHT22;5508;49.150;11.030;2023-01-06T17:19:40;7.80;99.90
10911;DHT22;5508;49.150;11.030;2023-01-06T17:22:41;7.80;99.90
10911;DHT22;5508;49.150;11.030;2023-01-06T17:25:43;7.80;99.90
10911;DHT22;5508;49.150;11.030;2023-01-06T17:28:45;7.90;99.90
10911;DHT22;5508;49.150;11.030;2023-01-06T17:31:47;7.90;99.90
10911;DHT22;5508;49.150;11.030;2023-01-06T17:34:48;7.90;99.90
10911;DHT22;5508;49.150;11.030;2023-01-06T17:37:49;7.80;99.90
10911;DHT22;5508;49.150;11.030;2023-01-06T17:40:50;7.80;99.90
10911;DHT22;5508;49.150;11.030;2023-01-06T17:43:51;7.80;99.90
10911;DHT22;5508;49.150;11.030;2023-01-06T17:46:52;7.80;99.90
10911;DHT22;5508;49.150;11.030;2023-01-06T17:49:55;7.80;99.90
10911;DHT22;5508;49.150;11.030;2023-01-06T17:56:41;7.70;99.90
10911;DHT22;5508;49.150;11.030;2023-01-06T17:59:41;7.80;99.90
10911;DHT22;5508;49.150;11.030;2023-01-06T18:02:55;7.70;99.90
10911;DHT22;5508;49.150;11.030;2023-01-06T18:09:06;7.70;99.90
10911;DHT22;5508;49.150;11.030;2023-01-06T18:12:12;7.60;99.90
10911;DHT22;5508;49.150;11.030;2023-01-06T18:15:32;7.60;99.90
10911;DHT22;5508;49.150;11.030;2023-01-06T18:18:38;7.60;99.90
10911;DHT22;5508;49.150;11.030;2023-01-06T18:21:39;7.70;99.90
10911;DHT22;5508;49.150;11.030;2023-01-06T18:24:40;7.60;99.90
10911;DHT22;5508;49.150;11.030;2023-01-06T18:27:41;7.70;99.90
10911;DHT22;5508;49.150;11.030;2023-01-06T18:30:44;7.60;99.90
10911;DHT22;5508;49.150;11.030;2023-01-06T18:33:45;7.60;99.90
10911;DHT22;5508;49.150;11.030;2023-01-06T18:36:46;7.60;99.90
10911;DHT22;5508;49.150;11.030;2023-01-06T18:39:48;7.70;99.90
10911;DHT22;5508;49.150;11.030;2023-01-06T18:42:53;7.60;99.90
10911;DHT22;5508;49.150;11.030;2023-01-06T18:45:59;7.70;99.90
10911;DHT22;5508;49.150;11.030;2023-01-06T18:49:00;7.50;99.90
10911;DHT22;5508;49.150;11.030;2023-01-06T18:52:22;7.50;99.90
10911;DHT22;5508;49.150;11.030;2023-01-06T18:55:26;7.50;99.90
10911;DHT22;5508;49.150;11.030;2023-01-06T18:58:43;7.40;99.90
10911;DHT22;5508;49.150;11.030;2023-01-06T19:01:50;7.40;99.90
10911;DHT22;5508;49.150;11.030;2023-01-06T19:04:54;7.40;99.90
10911;DHT22;5508;49.150;11.030;2023-01-06T19:07:55;7.40;99.90
10911;DHT22;5508;49.150;11.030;2023-01-06T19:10:56;7.40;99.90
10911;DHT22;5508;49.150;11.030;2023-01-06T19:13:59;7.50;99.90
10911;DHT22;5508;49.150;11.030;2023-01-06T19:17:01;7.50;99.90
10911;DHT22;5508;49.150;11.030;2023-01-06T19:20:20;7.50;99.90
10911;DHT22;5508;49.150;11.030;2023-01-06T19:23:23;7.40;99.90
10911;DHT22;5508;49.150;11.030;2023-01-06T19:26:30;7.40;99.90
10911;DHT22;5508;49.150;11.030;2023-01-06T19:29:33;7.40;99.90
10911;DHT22;5508;49.150;11.030;2023-01-06T19:32:34;7.50;99.90
10911;DHT22;5508;49.150;11.030;2023-01-06T19:35:35;7.50;99.90
10911;DHT22;5508;49.150;11.030;2023-01-06T19:38:39;7.50;99.90
10911;DHT22;5508;49.150;11.030;2023-01-06T19:41:40;7.40;99.90
10911;DHT22;5508;49.150;11.030;2023-01-06T19:44:41;7.40;99.90
10911;DHT22;5508;49.150;11.030;2023-01-06T19:47:42;7.40;99.90
10911;DHT22;5508;49.150;11.030;2023-01-06T19:50:43;7.40;99.90
10911;DHT22;5508;49.150;11.030;2023-01-06T19:53:49;7.30;99.90
10911;DHT22;5508;49.150;11.030;2023-01-06T19:56:51;7.30;99.90
10911;DHT22;5508;49.150;11.030;2023-01-06T19:59:55;7.30;99.90
10911;DHT22;5508;49.150;11.030;2023-01-06T20:02:59;7.30;99.90
10911;DHT22;5508;49.150;11.030;2023-01-06T20:06:01;7.30;99.90
10911;DHT22;5508;49.150;11.030;2023-01-06T20:09:02;7.30;99.90
10911;DHT22;5508;49.150;11.030;2023-01-06T20:12:03;7.20;99.90
10911;DHT22;5508;49.150;11.030;2023-01-06T20:15:04;7.20;99.90
10911;DHT22;5508;49.150;11.030;2023-01-06T20:18:05;7.10;99.90
10911;DHT22;5508;49.150;11.030;2023-01-06T20:21:05;7.10;99.90
10911;DHT22;5508;49.150;11.030;2023-01-06T20:24:06;7.10;99.90
10911;DHT22;5508;49.150;11.030;2023-01-06T20:27:07;7.00;99.90
10911;DHT22;5508;49.150;11.030;2023-01-06T20:30:08;7.00;99.90
10911;DHT22;5508;49.150;11.030;2023-01-06T20:33:09;7.00;99.90
10911;DHT22;5508;49.150;11.030;2023-01-06T20:36:10;7.00;99.90
10911;DHT22;5508;49.150;11.030;2023-01-06T20:39:10;6.90;99.90
10911;DHT22;5508;49.150;11.030;2023-01-06T20:42:14;6.90;99.90
10911;DHT22;5508;49.150;11.030;2023-01-06T20:45:14;6.90;99.90
10911;DHT22;5508;49.150;11.030;2023-01-06T20:48:15;6.90;99.90
10911;DHT22;5508;49.150;11.030;2023-01-06T20:51:16;6.80;99.90
10911;DHT22;5508;49.150;11.030;2023-01-06T20:54:16;6.90;99.90
10911;DHT22;5508;49.150;11.030;2023-01-06T20:57:17;6.90;99.90
10911;DHT22;5508;49.150;11.030;2023-01-06T21:00:18;6.90;99.90
10911;DHT22;5508;49.150;11.030;2023-01-06T21:03:18;6.80;99.90
10911;DHT22;5508;49.150;11.030;2023-01-06T21:06:19;6.80;99.90
10911;DHT22;5508;49.150;11.030;2023-01-06T21:09:19;6.80;99.90
10911;DHT22;5508;49.150;11.030;2023-01-06T21:12:20;6.80;99.90
10911;DHT22;5508;49.150;11.030;2023-01-06T21:15:20;6.80;99.90
10911;DHT22;5508;49.150;11.030;2023-01-06T21:18:21;6.80;99.90
10911;DHT22;5508;49.150;11.030;2023-01-06T21:21:22;7.00;99.90
10911;DHT22;5508;49.150;11.030;2023-01-06T21:24:22;7.00;99.90
10911;DHT22;5508;49.150;11.030;2023-01-06T21:27:24;7.00;99.90
10911;DHT22;5508;49.150;11.030;2023-01-06T21:30:25;7.00;99.90
10911;DHT22;5508;49.150;11.030;2023-01-06T21:33:27;7.00;99.90
10911;DHT22;5508;49.150;11.030;2023-01-06T21:36:28;6.90;99.90
10911;DHT22;5508;49.150;11.030;2023-01-06T21:39:28;6.80;99.90
10911;DHT22;5508;49.150;11.030;2023-01-06T21:42:29;6.80;99.90
10911;DHT22;5508;49.150;11.030;2023-01-06T21:45:48;6.80;99.90
10911;DHT22;5508;49.150;11.030;2023-01-06T21:48:49;6.70;99.90
10911;DHT22;5508;49.150;11.030;2023-01-06T21:51:51;6.70;99.90
10911;DHT22;5508;49.150;11.030;2023-01-06T21:54:53;6.70;99.90
10911;DHT22;5508;49.150;11.030;2023-01-06T21:57:54;6.70;99.90
10911;DHT22;5508;49.150;11.030;2023-01-06T22:00:54;6.70;99.90